PWSweather.com
Personal Weather Stations
Station Observations
WAREHAM1
West Wareham, MA 02576

West Wareham, MA 02576

Lat: 41.7961059, Lon: -70.775612

Elevation: 88

Station Type: Davis Vantage Vue

http://www.gateway2capecod.com

High Low Average
Temperature 91.2°F32.9°F 68.2°F20.1°F 78.9°F26.1°F
Dew Point 76.5°F24.7°F 66.4°F19.1°F 70.9°F21.6°F
Winds 2.9 mph ESE4.7 mph ESE Calm Calm 0.7 mph 1.1 mph
Wind Gusts 8.1 mph13.0 mph -- 2.0 mph3.2 mph
Humidity 95% 53% 78%
Pressure 29.93 in1013.50 in 29.87 in1011.50 in -
Precipitation 0.00 in0.00 in - -
Hour Temp Dew Point Humidity Winds Wind Gusts Pressure Precip Precip Rate Daily Precip Total
12:01 AM 73.2°F22.9°C 68.2°F20.1°C 84% Calm Calm -- 29.91 in1012.9 mb 0.00 in0.0 mm 0.00 in0.0 mm 0.00 in0.0 mm
12:11 AM 73.0°F22.8°C 68.2°F20.1°C 85% Calm Calm -- 29.91 in1012.9 mb 0.00 in0.0 mm 0.00 in0.0 mm 0.00 in0.0 mm
12:21 AM 72.9°F22.7°C 68.0°F20.0°C 85% Calm Calm -- 29.91 in1012.9 mb 0.00 in0.0 mm 0.00 in0.0 mm 0.00 in0.0 mm
12:31 AM 72.7°F22.6°C 68.2°F20.1°C 86% Calm Calm -- 29.91 in1012.9 mb 0.00 in0.0 mm 0.00 in0.0 mm 0.00 in0.0 mm
12:41 AM 72.3°F22.4°C 67.8°F19.9°C 86% Calm Calm -- 29.90 in1012.5 mb 0.00 in0.0 mm 0.00 in0.0 mm 0.00 in0.0 mm
12:51 AM 72.3°F22.4°C 68.2°F20.1°C 87% Calm Calm 1.0 mph1.6 kmh 29.91 in1012.9 mb 0.00 in0.0 mm 0.00 in0.0 mm 0.00 in0.0 mm
01:01 AM 72.3°F22.4°C 68.2°F20.1°C 87% Calm Calm -- 29.90 in1012.5 mb 0.00 in0.0 mm 0.00 in0.0 mm 0.00 in0.0 mm
01:11 AM 72.1°F22.3°C 68.4°F20.2°C 88% Calm Calm -- 29.90 in1012.5 mb 0.00 in0.0 mm 0.00 in0.0 mm 0.00 in0.0 mm
01:21 AM 72.1°F22.3°C 68.4°F20.2°C 88% Calm Calm -- 29.90 in1012.5 mb 0.00 in0.0 mm 0.00 in0.0 mm 0.00 in0.0 mm
01:31 AM 72.0°F22.2°C 68.2°F20.1°C 88% Calm Calm -- 29.90 in1012.5 mb 0.00 in0.0 mm 0.00 in0.0 mm 0.00 in0.0 mm
01:41 AM 71.8°F22.1°C 68.0°F20.0°C 88% Calm Calm -- 29.90 in1012.5 mb 0.00 in0.0 mm 0.00 in0.0 mm 0.00 in0.0 mm
01:51 AM 71.6°F22.0°C 68.2°F20.1°C 89% Calm Calm -- 29.90 in1012.5 mb 0.00 in0.0 mm 0.00 in0.0 mm 0.00 in0.0 mm
02:01 AM 71.2°F21.8°C 67.8°F19.9°C 89% Calm Calm -- 29.90 in1012.5 mb 0.00 in0.0 mm 0.00 in0.0 mm 0.00 in0.0 mm
02:11 AM 70.9°F21.6°C 67.5°F19.7°C 89% Calm Calm -- 29.90 in1012.5 mb 0.00 in0.0 mm 0.00 in0.0 mm 0.00 in0.0 mm
02:21 AM 70.9°F21.6°C 67.8°F19.9°C 90% Calm Calm -- 29.90 in1012.5 mb 0.00 in0.0 mm 0.00 in0.0 mm 0.00 in0.0 mm
02:31 AM 70.5°F21.4°C 67.5°F19.7°C 90% Calm Calm -- 29.90 in1012.5 mb 0.00 in0.0 mm 0.00 in0.0 mm 0.00 in0.0 mm
02:41 AM 70.3°F21.3°C 67.3°F19.6°C 90% Calm Calm -- 29.90 in1012.5 mb 0.00 in0.0 mm 0.00 in0.0 mm 0.00 in0.0 mm
02:51 AM 70.2°F21.2°C 67.1°F19.5°C 90% Calm Calm -- 29.90 in1012.5 mb 0.00 in0.0 mm 0.00 in0.0 mm 0.00 in0.0 mm
03:01 AM 70.2°F21.2°C 67.5°F19.7°C 91% Calm Calm -- 29.90 in1012.5 mb 0.00 in0.0 mm 0.00 in0.0 mm 0.00 in0.0 mm
03:11 AM 70.0°F21.1°C 67.3°F19.6°C 91% Calm Calm -- 29.90 in1012.5 mb 0.00 in0.0 mm 0.00 in0.0 mm 0.00 in0.0 mm
03:21 AM 69.6°F20.9°C 66.9°F19.4°C 91% Calm Calm -- 29.90 in1012.5 mb 0.00 in0.0 mm 0.00 in0.0 mm 0.00 in0.0 mm
03:31 AM 69.4°F20.8°C 67.1°F19.5°C 92% Calm Calm -- 29.90 in1012.5 mb 0.00 in0.0 mm 0.00 in0.0 mm 0.00 in0.0 mm
03:41 AM 69.3°F20.7°C 66.9°F19.4°C 92% Calm Calm -- 29.90 in1012.5 mb 0.00 in0.0 mm 0.00 in0.0 mm 0.00 in0.0 mm
03:51 AM 69.1°F20.6°C 66.7°F19.3°C 92% Calm Calm -- 29.90 in1012.5 mb 0.00 in0.0 mm 0.00 in0.0 mm 0.00 in0.0 mm
04:01 AM 69.1°F20.6°C 66.9°F19.4°C 93% Calm Calm -- 29.90 in1012.5 mb 0.00 in0.0 mm 0.00 in0.0 mm 0.00 in0.0 mm
04:11 AM 68.7°F20.4°C 66.6°F19.2°C 93% Calm Calm -- 29.90 in1012.5 mb 0.00 in0.0 mm 0.00 in0.0 mm 0.00 in0.0 mm
04:21 AM 68.5°F20.3°C 66.4°F19.1°C 93% Calm Calm -- 29.91 in1012.9 mb 0.00 in0.0 mm 0.00 in0.0 mm 0.00 in0.0 mm
04:31 AM 68.7°F20.4°C 66.6°F19.2°C 93% Calm Calm -- 29.90 in1012.5 mb 0.00 in0.0 mm 0.00 in0.0 mm 0.00 in0.0 mm
04:41 AM 68.7°F20.4°C 66.9°F19.4°C 94% Calm Calm -- 29.90 in1012.5 mb 0.00 in0.0 mm 0.00 in0.0 mm 0.00 in0.0 mm
04:51 AM 68.4°F20.2°C 66.6°F19.2°C 94% Calm Calm -- 29.90 in1012.5 mb 0.00 in0.0 mm 0.00 in0.0 mm 0.00 in0.0 mm
05:01 AM 68.2°F20.1°C 66.4°F19.1°C 94% Calm Calm -- 29.90 in1012.5 mb 0.00 in0.0 mm 0.00 in0.0 mm 0.00 in0.0 mm
05:11 AM 68.4°F20.2°C 66.6°F19.2°C 94% Calm Calm -- 29.91 in1012.9 mb 0.00 in0.0 mm 0.00 in0.0 mm 0.00 in0.0 mm
05:21 AM 68.2°F20.1°C 66.4°F19.1°C 94% Calm Calm -- 29.91 in1012.9 mb 0.00 in0.0 mm 0.00 in0.0 mm 0.00 in0.0 mm
05:31 AM 68.2°F20.1°C 66.7°F19.3°C 95% Calm Calm -- 29.91 in1012.9 mb 0.00 in0.0 mm 0.00 in0.0 mm 0.00 in0.0 mm
05:41 AM 68.2°F20.1°C 66.7°F19.3°C 95% Calm Calm -- 29.91 in1012.9 mb 0.00 in0.0 mm 0.00 in0.0 mm 0.00 in0.0 mm
05:51 AM 68.2°F20.1°C 66.7°F19.3°C 95% Calm Calm -- 29.91 in1012.9 mb 0.00 in0.0 mm 0.00 in0.0 mm 0.00 in0.0 mm
06:01 AM 68.2°F20.1°C 66.7°F19.3°C 95% Calm Calm -- 29.92 in1013.2 mb 0.00 in0.0 mm 0.00 in0.0 mm 0.00 in0.0 mm
06:11 AM 68.4°F20.2°C 66.9°F19.4°C 95% Calm Calm -- 29.92 in1013.2 mb 0.00 in0.0 mm 0.00 in0.0 mm 0.00 in0.0 mm
06:21 AM 68.5°F20.3°C 67.1°F19.5°C 95% Calm Calm -- 29.92 in1013.2 mb 0.00 in0.0 mm 0.00 in0.0 mm 0.00 in0.0 mm
06:31 AM 69.3°F20.7°C 67.8°F19.9°C 95% Calm Calm -- 29.92 in1013.2 mb 0.00 in0.0 mm 0.00 in0.0 mm 0.00 in0.0 mm
06:41 AM 70.5°F21.4°C 69.1°F20.6°C 95% Calm Calm 1.0 mph1.6 kmh 29.93 in1013.5 mb 0.00 in0.0 mm 0.00 in0.0 mm 0.00 in0.0 mm
06:51 AM 72.0°F22.2°C 70.2°F21.2°C 94% Calm Calm -- 29.92 in1013.2 mb 0.00 in0.0 mm 0.00 in0.0 mm 0.00 in0.0 mm
07:01 AM 72.5°F22.5°C 70.0°F21.1°C 92% Calm Calm -- 29.92 in1013.2 mb 0.00 in0.0 mm 0.00 in0.0 mm 0.00 in0.0 mm
07:11 AM 74.1°F23.4°C 71.1°F21.7°C 90% Calm Calm -- 29.92 in1013.2 mb 0.00 in0.0 mm 0.00 in0.0 mm 0.00 in0.0 mm
07:21 AM 75.4°F24.1°C 70.9°F21.6°C 86% Calm Calm -- 29.92 in1013.2 mb 0.00 in0.0 mm 0.00 in0.0 mm 0.00 in0.0 mm
07:31 AM 76.6°F24.8°C 71.1°F21.7°C 83% Calm Calm -- 29.92 in1013.2 mb 0.00 in0.0 mm 0.00 in0.0 mm 0.00 in0.0 mm
07:41 AM 77.4°F25.2°C 70.3°F21.3°C 79% Calm Calm -- 29.93 in1013.5 mb 0.00 in0.0 mm 0.00 in0.0 mm 0.00 in0.0 mm
07:51 AM 77.4°F25.2°C 70.7°F21.5°C 80% Calm Calm -- 29.93 in1013.5 mb 0.00 in0.0 mm 0.00 in0.0 mm 0.00 in0.0 mm
08:01 AM 77.9°F25.5°C 70.5°F21.4°C 78% Calm Calm -- 29.93 in1013.5 mb 0.00 in0.0 mm 0.00 in0.0 mm 0.00 in0.0 mm
08:11 AM 77.7°F25.4°C 70.3°F21.3°C 78% Calm Calm -- 29.93 in1013.5 mb 0.00 in0.0 mm 0.00 in0.0 mm 0.00 in0.0 mm
08:21 AM 77.7°F25.4°C 70.3°F21.3°C 78% Calm Calm -- 29.93 in1013.5 mb 0.00 in0.0 mm 0.00 in0.0 mm 0.00 in0.0 mm
08:31 AM 78.3°F25.7°C 70.9°F21.6°C 78% Calm Calm -- 29.93 in1013.5 mb 0.00 in0.0 mm 0.00 in0.0 mm 0.00 in0.0 mm
08:41 AM 78.6°F25.9°C 70.9°F21.6°C 77% Calm Calm -- 29.92 in1013.2 mb 0.00 in0.0 mm 0.00 in0.0 mm 0.00 in0.0 mm
08:51 AM 79.3°F26.3°C 70.7°F21.5°C 75% Calm Calm -- 29.92 in1013.2 mb 0.00 in0.0 mm 0.00 in0.0 mm 0.00 in0.0 mm
09:02 AM 80.4°F26.9°C 70.9°F21.6°C 73% Calm Calm 1.0 mph1.6 kmh 29.92 in1013.2 mb 0.00 in0.0 mm 0.00 in0.0 mm 0.00 in0.0 mm
09:12 AM 81.3°F27.4°C 71.4°F21.9°C 72% Calm Calm 1.0 mph1.6 kmh 29.92 in1013.2 mb 0.00 in0.0 mm 0.00 in0.0 mm 0.00 in0.0 mm
09:22 AM 82.2°F27.9°C 71.1°F21.7°C 69% Calm Calm 0.9 mph1.4 kmh 29.92 in1013.2 mb 0.00 in0.0 mm 0.00 in0.0 mm 0.00 in0.0 mm
09:32 AM 83.1°F28.4°C 71.4°F21.9°C 68% Calm Calm 2.0 mph3.2 kmh 29.92 in1013.2 mb 0.00 in0.0 mm 0.00 in0.0 mm 0.00 in0.0 mm
09:42 AM 84.0°F28.9°C 71.4°F21.9°C 66% Calm Calm 0.9 mph1.4 kmh 29.92 in1013.2 mb 0.00 in0.0 mm 0.00 in0.0 mm 0.00 in0.0 mm
09:52 AM 84.9°F29.4°C 71.4°F21.9°C 64% Calm Calm 2.0 mph3.2 kmh 29.92 in1013.2 mb 0.00 in0.0 mm 0.00 in0.0 mm 0.00 in0.0 mm
10:02 AM 85.6°F29.8°C 71.6°F22.0°C 63% 0.9 mph SSW1.4 kmh SSW 3.0 mph4.8 kmh 29.92 in1013.2 mb 0.00 in0.0 mm 0.00 in0.0 mm 0.00 in0.0 mm
10:12 AM 86.2°F30.1°C 71.6°F22.0°C 62% 0.9 mph ESE1.4 kmh ESE 2.9 mph4.7 kmh 29.92 in1013.2 mb 0.00 in0.0 mm 0.00 in0.0 mm 0.00 in0.0 mm
10:22 AM 87.1°F30.6°C 74.8°F23.8°C 67% Calm Calm 2.9 mph4.7 kmh 29.92 in1013.2 mb 0.00 in0.0 mm 0.00 in0.0 mm 0.00 in0.0 mm
10:32 AM 87.4°F30.8°C 75.2°F24.0°C 67% 0.9 mph SE1.4 kmh SE 2.9 mph4.7 kmh 29.92 in1013.2 mb 0.00 in0.0 mm 0.00 in0.0 mm 0.00 in0.0 mm
10:42 AM 88.2°F31.2°C 76.3°F24.6°C 68% 0.9 mph SE1.4 kmh SE 2.9 mph4.7 kmh 29.92 in1013.2 mb 0.00 in0.0 mm 0.00 in0.0 mm 0.00 in0.0 mm
10:52 AM 87.6°F30.9°C 76.1°F24.5°C 69% 0.9 mph S1.4 kmh S 4.0 mph6.4 kmh 29.92 in1013.2 mb 0.00 in0.0 mm 0.00 in0.0 mm 0.00 in0.0 mm
11:02 AM 86.7°F30.4°C 75.7°F24.3°C 70% 2.0 mph S3.2 kmh S 4.0 mph6.4 kmh 29.92 in1013.2 mb 0.00 in0.0 mm 0.00 in0.0 mm 0.00 in0.0 mm
11:12 AM 87.6°F30.9°C 76.1°F24.5°C 69% 0.9 mph S1.4 kmh S 2.9 mph4.7 kmh 29.91 in1012.9 mb 0.00 in0.0 mm 0.00 in0.0 mm 0.00 in0.0 mm
11:22 AM 86.5°F30.3°C 75.9°F24.4°C 71% 2.9 mph ESE4.7 kmh ESE 6.0 mph9.7 kmh 29.91 in1012.9 mb 0.00 in0.0 mm 0.00 in0.0 mm 0.00 in0.0 mm
11:32 AM 87.1°F30.6°C 76.5°F24.7°C 71% 2.0 mph ESE3.2 kmh ESE 4.0 mph6.4 kmh 29.91 in1012.9 mb 0.00 in0.0 mm 0.00 in0.0 mm 0.00 in0.0 mm
11:42 AM 86.7°F30.4°C 76.1°F24.5°C 71% 2.9 mph E4.7 kmh E 4.9 mph7.9 kmh 29.91 in1012.9 mb 0.00 in0.0 mm 0.00 in0.0 mm 0.00 in0.0 mm
11:52 AM 86.4°F30.2°C 76.3°F24.6°C 72% 2.9 mph ESE4.7 kmh ESE 6.0 mph9.7 kmh 29.90 in1012.5 mb 0.00 in0.0 mm 0.00 in0.0 mm 0.00 in0.0 mm
12:02 PM 86.9°F30.5°C 76.3°F24.6°C 71% 2.0 mph SE3.2 kmh SE 6.0 mph9.7 kmh 29.90 in1012.5 mb 0.00 in0.0 mm 0.00 in0.0 mm 0.00 in0.0 mm
12:12 PM 88.5°F31.4°C 74.3°F23.5°C 63% 2.0 mph S3.2 kmh S 5.0 mph8.0 kmh 29.90 in1012.5 mb 0.00 in0.0 mm 0.00 in0.0 mm 0.00 in0.0 mm
12:22 PM 90.7°F32.6°C 74.3°F23.5°C 59% 0.9 mph S1.4 kmh S 2.9 mph4.7 kmh 29.90 in1012.5 mb 0.00 in0.0 mm 0.00 in0.0 mm 0.00 in0.0 mm
12:32 PM 90.9°F32.7°C 74.1°F23.4°C 58% 2.0 mph SSW3.2 kmh SSW 4.0 mph6.4 kmh 29.90 in1012.5 mb 0.00 in0.0 mm 0.00 in0.0 mm 0.00 in0.0 mm
12:42 PM 90.1°F32.3°C 73.9°F23.3°C 59% 2.0 mph SSW3.2 kmh SSW 4.0 mph6.4 kmh 29.90 in1012.5 mb 0.00 in0.0 mm 0.00 in0.0 mm 0.00 in0.0 mm
12:52 PM 90.0°F32.2°C 73.8°F23.2°C 59% 2.0 mph SW3.2 kmh SW 4.0 mph6.4 kmh 29.89 in1012.2 mb 0.00 in0.0 mm 0.00 in0.0 mm 0.00 in0.0 mm
01:02 PM 89.8°F32.1°C 73.0°F22.8°C 58% 2.0 mph SE3.2 kmh SE 4.0 mph6.4 kmh 29.89 in1012.2 mb 0.00 in0.0 mm 0.00 in0.0 mm 0.00 in0.0 mm
01:12 PM 90.0°F32.2°C 73.2°F22.9°C 58% 2.0 mph SE3.2 kmh SE 4.0 mph6.4 kmh 29.89 in1012.2 mb 0.00 in0.0 mm 0.00 in0.0 mm 0.00 in0.0 mm
01:22 PM 91.0°F32.8°C 71.6°F22.0°C 53% 2.0 mph SSW3.2 kmh SSW 4.0 mph6.4 kmh 29.89 in1012.2 mb 0.00 in0.0 mm 0.00 in0.0 mm 0.00 in0.0 mm
01:32 PM 91.2°F32.9°C 71.6°F22.0°C 53% 2.0 mph S3.2 kmh S 4.9 mph7.9 kmh 29.89 in1012.2 mb 0.00 in0.0 mm 0.00 in0.0 mm 0.00 in0.0 mm
01:42 PM 90.5°F32.5°C 71.1°F21.7°C 53% 2.0 mph S3.2 kmh S 5.0 mph8.0 kmh 29.89 in1012.2 mb 0.00 in0.0 mm 0.00 in0.0 mm 0.00 in0.0 mm
01:52 PM 90.0°F32.2°C 70.5°F21.4°C 53% 2.0 mph SSW3.2 kmh SSW 6.9 mph11.1 kmh 29.89 in1012.2 mb 0.00 in0.0 mm 0.00 in0.0 mm 0.00 in0.0 mm
02:02 PM 89.2°F31.8°C 70.3°F21.3°C 54% 2.0 mph S3.2 kmh S 4.9 mph7.9 kmh 29.89 in1012.2 mb 0.00 in0.0 mm 0.00 in0.0 mm 0.00 in0.0 mm
02:12 PM 89.2°F31.8°C 70.9°F21.6°C 55% 2.0 mph S3.2 kmh S 4.0 mph6.4 kmh 29.89 in1012.2 mb 0.00 in0.0 mm 0.00 in0.0 mm 0.00 in0.0 mm
02:22 PM 88.9°F31.6°C 72.1°F22.3°C 58% 2.0 mph SE3.2 kmh SE 4.0 mph6.4 kmh 29.88 in1011.9 mb 0.00 in0.0 mm 0.00 in0.0 mm 0.00 in0.0 mm
02:32 PM 88.5°F31.4°C 72.9°F22.7°C 60% 2.0 mph SE3.2 kmh SE 4.0 mph6.4 kmh 29.88 in1011.9 mb 0.00 in0.0 mm 0.00 in0.0 mm 0.00 in0.0 mm
02:42 PM 88.0°F31.1°C 71.8°F22.1°C 59% 2.0 mph SSW3.2 kmh SSW 4.9 mph7.9 kmh 29.88 in1011.9 mb 0.00 in0.0 mm 0.00 in0.0 mm 0.00 in0.0 mm
02:52 PM 87.6°F30.9°C 72.5°F22.5°C 61% 2.0 mph SW3.2 kmh SW 4.0 mph6.4 kmh 29.88 in1011.9 mb 0.00 in0.0 mm 0.00 in0.0 mm 0.00 in0.0 mm
03:02 PM 88.0°F31.1°C 70.9°F21.6°C 57% 2.0 mph SE3.2 kmh SE 8.1 mph13.0 kmh 29.88 in1011.9 mb 0.00 in0.0 mm 0.00 in0.0 mm 0.00 in0.0 mm
03:12 PM 87.1°F30.6°C 70.5°F21.4°C 58% 2.0 mph S3.2 kmh S 6.0 mph9.7 kmh 29.87 in1011.5 mb 0.00 in0.0 mm 0.00 in0.0 mm 0.00 in0.0 mm
03:22 PM 87.1°F30.6°C 70.5°F21.4°C 58% 2.0 mph SW3.2 kmh SW 6.0 mph9.7 kmh 29.87 in1011.5 mb 0.00 in0.0 mm 0.00 in0.0 mm 0.00 in0.0 mm
03:32 PM 87.1°F30.6°C 71.1°F21.7°C 59% 2.0 mph S3.2 kmh S 4.9 mph7.9 kmh 29.87 in1011.5 mb 0.00 in0.0 mm 0.00 in0.0 mm 0.00 in0.0 mm
03:42 PM 87.4°F30.8°C 71.8°F22.1°C 60% 2.0 mph S3.2 kmh S 4.0 mph6.4 kmh 29.87 in1011.5 mb 0.00 in0.0 mm 0.00 in0.0 mm 0.00 in0.0 mm
03:52 PM 87.6°F30.9°C 71.1°F21.7°C 58% 2.0 mph S3.2 kmh S 6.0 mph9.7 kmh 29.87 in1011.5 mb 0.00 in0.0 mm 0.00 in0.0 mm 0.00 in0.0 mm
04:02 PM 87.4°F30.8°C 69.3°F20.7°C 55% 2.9 mph S4.7 kmh S 6.0 mph9.7 kmh 29.87 in1011.5 mb 0.00 in0.0 mm 0.00 in0.0 mm 0.00 in0.0 mm
04:12 PM 87.4°F30.8°C 69.8°F21.0°C 56% 2.0 mph S3.2 kmh S 4.0 mph6.4 kmh 29.87 in1011.5 mb 0.00 in0.0 mm 0.00 in0.0 mm 0.00 in0.0 mm
04:22 PM 86.7°F30.4°C 69.1°F20.6°C 56% 2.0 mph S3.2 kmh S 5.0 mph8.0 kmh 29.88 in1011.9 mb 0.00 in0.0 mm 0.00 in0.0 mm 0.00 in0.0 mm
04:32 PM 86.5°F30.3°C 68.9°F20.5°C 56% 2.0 mph WSW3.2 kmh WSW 4.0 mph6.4 kmh 29.87 in1011.5 mb 0.00 in0.0 mm 0.00 in0.0 mm 0.00 in0.0 mm
04:42 PM 86.9°F30.5°C 68.7°F20.4°C 55% 2.0 mph S3.2 kmh S 4.0 mph6.4 kmh 29.87 in1011.5 mb 0.00 in0.0 mm 0.00 in0.0 mm 0.00 in0.0 mm
04:52 PM 86.0°F30.0°C 68.9°F20.5°C 57% 2.0 mph SSW3.2 kmh SSW 6.0 mph9.7 kmh 29.87 in1011.5 mb 0.00 in0.0 mm 0.00 in0.0 mm 0.00 in0.0 mm
05:02 PM 86.0°F30.0°C 68.9°F20.5°C 57% 2.0 mph SSW3.2 kmh SSW 5.0 mph8.0 kmh 29.87 in1011.5 mb 0.00 in0.0 mm 0.00 in0.0 mm 0.00 in0.0 mm
05:12 PM 85.8°F29.9°C 69.8°F21.0°C 59% 2.0 mph SSW3.2 kmh SSW 4.9 mph7.9 kmh 29.87 in1011.5 mb 0.00 in0.0 mm 0.00 in0.0 mm 0.00 in0.0 mm
05:22 PM 86.0°F30.0°C 70.0°F21.1°C 59% 0.9 mph SSW1.4 kmh SSW 4.0 mph6.4 kmh 29.87 in1011.5 mb 0.00 in0.0 mm 0.00 in0.0 mm 0.00 in0.0 mm
05:32 PM 85.6°F29.8°C 69.6°F20.9°C 59% 2.0 mph SSW3.2 kmh SSW 4.0 mph6.4 kmh 29.87 in1011.5 mb 0.00 in0.0 mm 0.00 in0.0 mm 0.00 in0.0 mm
05:42 PM 84.6°F29.2°C 70.2°F21.2°C 62% 2.0 mph SSW3.2 kmh SSW 4.0 mph6.4 kmh 29.87 in1011.5 mb 0.00 in0.0 mm 0.00 in0.0 mm 0.00 in0.0 mm
05:52 PM 83.8°F28.8°C 70.3°F21.3°C 64% 0.9 mph SE1.4 kmh SE 4.0 mph6.4 kmh 29.87 in1011.5 mb 0.00 in0.0 mm 0.00 in0.0 mm 0.00 in0.0 mm
06:02 PM 82.9°F28.3°C 70.3°F21.3°C 66% 2.0 mph S3.2 kmh S 5.0 mph8.0 kmh 29.88 in1011.9 mb 0.00 in0.0 mm 0.00 in0.0 mm 0.00 in0.0 mm
06:12 PM 81.9°F27.7°C 71.6°F22.0°C 71% 2.0 mph WSW3.2 kmh WSW 6.0 mph9.7 kmh 29.88 in1011.9 mb 0.00 in0.0 mm 0.00 in0.0 mm 0.00 in0.0 mm
06:22 PM 81.9°F27.7°C 72.7°F22.6°C 74% 2.0 mph SSE3.2 kmh SSE 2.9 mph4.7 kmh 29.88 in1011.9 mb 0.00 in0.0 mm 0.00 in0.0 mm 0.00 in0.0 mm
06:32 PM 81.5°F27.5°C 73.6°F23.1°C 77% 2.0 mph SSW3.2 kmh SSW 4.0 mph6.4 kmh 29.88 in1011.9 mb 0.00 in0.0 mm 0.00 in0.0 mm 0.00 in0.0 mm
06:42 PM 81.0°F27.2°C 73.4°F23.0°C 78% 0.9 mph SSW1.4 kmh SSW 2.9 mph4.7 kmh 29.89 in1012.2 mb 0.00 in0.0 mm 0.00 in0.0 mm 0.00 in0.0 mm
06:52 PM 80.4°F26.9°C 73.8°F23.2°C 80% 0.9 mph SSW1.4 kmh SSW 3.0 mph4.8 kmh 29.89 in1012.2 mb 0.00 in0.0 mm 0.00 in0.0 mm 0.00 in0.0 mm
07:02 PM 79.2°F26.2°C 73.2°F22.9°C 82% 0.9 mph SSW1.4 kmh SSW 4.0 mph6.4 kmh 29.89 in1012.2 mb 0.00 in0.0 mm 0.00 in0.0 mm 0.00 in0.0 mm
07:12 PM 79.0°F26.1°C 73.4°F23.0°C 83% Calm Calm 4.0 mph6.4 kmh 29.89 in1012.2 mb 0.00 in0.0 mm 0.00 in0.0 mm 0.00 in0.0 mm
07:22 PM 78.6°F25.9°C 73.4°F23.0°C 84% Calm Calm 0.9 mph1.4 kmh 29.89 in1012.2 mb 0.00 in0.0 mm 0.00 in0.0 mm 0.00 in0.0 mm
07:32 PM 78.3°F25.7°C 73.4°F23.0°C 85% Calm Calm 1.0 mph1.6 kmh 29.90 in1012.5 mb 0.00 in0.0 mm 0.00 in0.0 mm 0.00 in0.0 mm
07:42 PM 77.9°F25.5°C 73.4°F23.0°C 86% Calm Calm 0.9 mph1.4 kmh 29.89 in1012.2 mb 0.00 in0.0 mm 0.00 in0.0 mm 0.00 in0.0 mm
07:52 PM 77.5°F25.3°C 73.4°F23.0°C 87% Calm Calm 0.9 mph1.4 kmh 29.89 in1012.2 mb 0.00 in0.0 mm 0.00 in0.0 mm 0.00 in0.0 mm
08:02 PM 77.4°F25.2°C 73.6°F23.1°C 88% Calm Calm 0.9 mph1.4 kmh 29.89 in1012.2 mb 0.00 in0.0 mm 0.00 in0.0 mm 0.00 in0.0 mm
08:12 PM 77.2°F25.1°C 73.4°F23.0°C 88% Calm Calm 0.9 mph1.4 kmh 29.89 in1012.2 mb 0.00 in0.0 mm 0.00 in0.0 mm 0.00 in0.0 mm
08:22 PM 76.8°F24.9°C 73.4°F23.0°C 89% Calm Calm 1.0 mph1.6 kmh 29.89 in1012.2 mb 0.00 in0.0 mm 0.00 in0.0 mm 0.00 in0.0 mm
08:32 PM 76.8°F24.9°C 73.4°F23.0°C 89% Calm Calm 1.0 mph1.6 kmh 29.89 in1012.2 mb 0.00 in0.0 mm 0.00 in0.0 mm 0.00 in0.0 mm
08:42 PM 76.6°F24.8°C 73.4°F23.0°C 90% Calm Calm -- 29.89 in1012.2 mb 0.00 in0.0 mm 0.00 in0.0 mm 0.00 in0.0 mm
08:52 PM 76.5°F24.7°C 73.2°F22.9°C 90% Calm Calm 0.9 mph1.4 kmh 29.89 in1012.2 mb 0.00 in0.0 mm 0.00 in0.0 mm 0.00 in0.0 mm
09:02 PM 76.5°F24.7°C 73.2°F22.9°C 90% Calm Calm 0.9 mph1.4 kmh 29.89 in1012.2 mb 0.00 in0.0 mm 0.00 in0.0 mm 0.00 in0.0 mm
09:12 PM 76.3°F24.6°C 73.4°F23.0°C 91% Calm Calm 0.9 mph1.4 kmh 29.89 in1012.2 mb 0.00 in0.0 mm 0.00 in0.0 mm 0.00 in0.0 mm
09:22 PM 76.3°F24.6°C 73.4°F23.0°C 91% Calm Calm 1.0 mph1.6 kmh 29.90 in1012.5 mb 0.00 in0.0 mm 0.00 in0.0 mm 0.00 in0.0 mm
09:32 PM 76.3°F24.6°C 73.4°F23.0°C 91% Calm Calm 1.0 mph1.6 kmh 29.90 in1012.5 mb 0.00 in0.0 mm 0.00 in0.0 mm 0.00 in0.0 mm
09:42 PM 76.3°F24.6°C 73.4°F23.0°C 91% Calm Calm 1.0 mph1.6 kmh 29.90 in1012.5 mb 0.00 in0.0 mm 0.00 in0.0 mm 0.00 in0.0 mm
09:52 PM 76.1°F24.5°C 73.2°F22.9°C 91% Calm Calm 1.0 mph1.6 kmh 29.90 in1012.5 mb 0.00 in0.0 mm 0.00 in0.0 mm 0.00 in0.0 mm
10:02 PM 75.9°F24.4°C 73.0°F22.8°C 91% Calm Calm 1.0 mph1.6 kmh 29.90 in1012.5 mb 0.00 in0.0 mm 0.00 in0.0 mm 0.00 in0.0 mm
10:12 PM 75.9°F24.4°C 73.0°F22.8°C 91% Calm Calm 1.0 mph1.6 kmh 29.90 in1012.5 mb 0.00 in0.0 mm 0.00 in0.0 mm 0.00 in0.0 mm
10:22 PM 75.7°F24.3°C 73.2°F22.9°C 92% Calm Calm 1.0 mph1.6 kmh 29.90 in1012.5 mb 0.00 in0.0 mm 0.00 in0.0 mm 0.00 in0.0 mm
10:32 PM 75.7°F24.3°C 73.2°F22.9°C 92% Calm Calm -- 29.90 in1012.5 mb 0.00 in0.0 mm 0.00 in0.0 mm 0.00 in0.0 mm
10:42 PM 75.7°F24.3°C 73.2°F22.9°C 92% Calm Calm -- 29.90 in1012.5 mb 0.00 in0.0 mm 0.00 in0.0 mm 0.00 in0.0 mm
10:52 PM 75.7°F24.3°C 73.2°F22.9°C 92% Calm Calm -- 29.90 in1012.5 mb 0.00 in0.0 mm 0.00 in0.0 mm 0.00 in0.0 mm
11:02 PM 75.7°F24.3°C 73.2°F22.9°C 92% Calm Calm 1.0 mph1.6 kmh 29.90 in1012.5 mb 0.00 in0.0 mm 0.00 in0.0 mm 0.00 in0.0 mm
11:12 PM 75.9°F24.4°C 73.8°F23.2°C 93% Calm Calm 1.0 mph1.6 kmh 29.90 in1012.5 mb 0.00 in0.0 mm 0.00 in0.0 mm 0.00 in0.0 mm
11:22 PM 75.9°F24.4°C 73.8°F23.2°C 93% Calm Calm 0.9 mph1.4 kmh 29.90 in1012.5 mb 0.00 in0.0 mm 0.00 in0.0 mm 0.00 in0.0 mm
11:32 PM 75.9°F24.4°C 73.8°F23.2°C 93% Calm Calm 0.9 mph1.4 kmh 29.90 in1012.5 mb 0.00 in0.0 mm 0.00 in0.0 mm 0.00 in0.0 mm
11:42 PM 75.7°F24.3°C 73.6°F23.1°C 93% Calm Calm 0.9 mph1.4 kmh 29.89 in1012.2 mb 0.00 in0.0 mm 0.00 in0.0 mm 0.00 in0.0 mm
11:52 PM 75.6°F24.2°C 73.4°F23.0°C 93% Calm Calm 1.0 mph1.6 kmh 29.88 in1011.9 mb 0.00 in0.0 mm 0.00 in0.0 mm 0.00 in0.0 mm